Londres, Argentina
Current Conditions -  °F | °C
As of 6:00 PM on Friday 28 Nov 2014 (Local Time) from SANT Reporting Station
Scattered Clouds Scattered Clouds  
Wind Chill: 91°   Ceiling: Unl
Heat Index: 98°   Visibility: 6mi
Dew Point: 72°   Wind: 9mph
Humidity: 52%   Direction: 200°SSW
Pressure: 29.65"   Gusts: NA
Location:  27.72°S, 67.12°W
Report Text: SANT 282100Z 20008KT 9999 SCT035 SCT04033/22 Q1004
Loading
Personal Weather Stations






























Interactive Weather Map New forecast layout! Learn more

10-Day Weather Forecast

Advertisements
Track Severe Weather on mobile